Brimley, Michigan
Current Conditions -  °F | °C
As of 9:17 AM on Sunday 23 Nov 2014 (Local Time) from CYAM Reporting Station
Drizzle Drizzle  
Wind Chill: 31°   Ceiling: 100
Heat Index: 37°   Visibility: 0.5mi
Dew Point: 37°   Wind: 8mph
Humidity: 100%   Direction: 110°ESE
Pressure: 29.72"   Gusts: NA
Location:  46.41°N, 84.57°W
Report Text: CYAM 231417Z 11007KT 1/2SM -DZ FG VV001 03/03 A2972 RMK FG8 SLP072
Loading
Personal Weather Stations






























Interactive Weather Map New forecast layout! Learn more

10-Day Weather Forecast

Advertisements
Track Severe Weather on mobile